LTAY/DNZ METAR and TAF weather

Enter ICAO airport designator
Station Type Date Time Source
LTAY METAR 2019/11/18 03:50 UTC NOAA

LTAY 180350Z 08005KT CAVOK 03/M01 Q1023


Station Type Date Time Source
LTAY Decoded METAR 2019/11/18 03:50 UTC NOAA

Cardak, Turkey (LTAY) 37-47N 029-42E
Nov 17, 2019 - 10:50 PM EST / 2019.11.18 0350 UTC
Wind: from the E (080 degrees) at 6 MPH (5 KT):0
Visibility: greater than 7 mile(s):0
Temperature: 37 F (3 C)
Dew Point: 30 F (-1 C)
Relative Humidity: 74%
Pressure (altimeter): 30.21 in. Hg (1023 hPa)
ob: LTAY 180350Z 08005KT CAVOK 03/M01 Q1023
cycle: 4

Station Type Date Time Source
LTAY TAF UTC NOAA

Error!

Example: see airport list